Mistatim, Canada
Current Conditions -  °F | °C
As of 2:00 AM on Tuesday 27 Jan 2015 (Local Time) from CYBU Reporting Station
Overcast Overcast  
Wind Chill: 26°   Ceiling: 14000
Heat Index: 32°   Visibility: 9mi
Dew Point: 28°   Wind: 6mph
Humidity: 87%   Direction: 250°WSW
Pressure: 29.79"   Gusts: NA
Location:  52.87°N, 103.37°W
Report Text: CYBU 270800Z AUTO 25005KT 9SM OVC140 M00/M02 A2979 RMK SLP106
Loading
Personal Weather Stations






























Interactive Weather Map New forecast layout! Learn more

10-Day Weather Forecast

Advertisements
Track Severe Weather on mobile